createdAt,value
2022-11-23T00:00:23.108Z,4.65
2022-11-23T00:03:20.008Z,4.07
2022-11-23T00:06:18.111Z,5.05
2022-11-23T00:09:14.967Z,7.47
2022-11-23T00:12:11.872Z,6.28
2022-11-23T00:15:09.963Z,6.20
2022-11-23T00:18:06.846Z,5.25
2022-11-23T00:21:17.123Z,6.57
2022-11-23T00:24:14.155Z,10.95
2022-11-23T00:27:11.025Z,7.28
2022-11-23T00:30:08.948Z,4.68
2022-11-23T00:33:05.881Z,5.93
2022-11-23T00:36:08.955Z,4.45
2022-11-23T00:39:05.817Z,9.02
2022-11-23T00:42:02.755Z,6.28
2022-11-23T00:44:59.686Z,7.70
2022-11-23T00:47:56.573Z,5.03
2022-11-23T00:50:53.543Z,6.53
2022-11-23T00:53:51.790Z,8.05
2022-11-23T00:56:48.679Z,5.85
2022-11-23T00:59:45.786Z,4.78
2022-11-23T01:02:42.675Z,6.05
2022-11-23T01:05:39.808Z,5.60
2022-11-23T01:08:37.750Z,7.32
2022-11-23T01:11:35.435Z,7.07
2022-11-23T01:14:32.356Z,6.82
2022-11-23T01:17:29.285Z,6.57
2022-11-23T01:20:26.170Z,7.18
2022-11-23T01:23:23.293Z,4.93
2022-11-23T01:26:20.875Z,6.28
2022-11-23T01:29:17.748Z,6.30
2022-11-23T01:32:14.645Z,4.50
2022-11-23T01:35:11.539Z,3.58
2022-11-23T01:38:08.782Z,6.05
2022-11-23T01:41:11.968Z,5.32
2022-11-23T01:44:31.468Z,6.07
2022-11-23T01:47:28.421Z,4.13
2022-11-23T01:50:26.253Z,5.32
2022-11-23T01:53:23.470Z,4.80
2022-11-23T01:56:26.978Z,6.78
2022-11-23T01:59:25.483Z,6.43
2022-11-23T02:02:22.654Z,8.13
2022-11-23T02:05:24.156Z,4.40
2022-11-23T02:08:21.969Z,5.88
2022-11-23T02:11:18.889Z,5.18
2022-11-23T02:14:21.926Z,4.15
2022-11-23T02:17:22.050Z,10.07
2022-11-23T02:20:19.549Z,6.65
2022-11-23T02:23:46.580Z,7.20
2022-11-23T02:26:44.140Z,7.40
2022-11-23T02:29:41.766Z,6.05
2022-11-23T02:32:38.926Z,9.40
2022-11-23T02:35:36.071Z,7.25
2022-11-23T02:38:34.097Z,8.32
2022-11-23T02:41:50.476Z,5.72
2022-11-23T02:45:20.184Z,8.57
2022-11-23T02:48:18.371Z,7.30
2022-11-23T02:51:15.272Z,5.03
2022-11-23T02:54:12.329Z,8.38
2022-11-23T02:57:10.031Z,6.05
2022-11-23T03:00:08.118Z,6.22
2022-11-23T03:03:05.447Z,6.00
2022-11-23T03:06:02.538Z,9.80
2022-11-23T03:08:59.645Z,6.57
2022-11-23T03:11:56.624Z,8.00
2022-11-23T03:14:53.568Z,7.65
2022-11-23T03:17:50.597Z,6.05
2022-11-23T03:20:47.483Z,7.85
2022-11-23T03:23:44.740Z,4.55
2022-11-23T03:26:41.641Z,8.18
2022-11-23T03:29:38.510Z,5.30
2022-11-23T03:32:36.391Z,7.43
2022-11-23T03:35:33.250Z,9.52
2022-11-23T03:38:30.709Z,8.02
2022-11-23T03:41:27.818Z,4.63
2022-11-23T03:44:24.874Z,6.22
2022-11-23T03:47:21.829Z,8.20
2022-11-23T03:50:18.851Z,11.48
2022-11-23T03:53:15.783Z,7.45
2022-11-23T03:56:13.549Z,10.07
2022-11-23T03:59:10.448Z,8.70
2022-11-23T04:02:08.132Z,5.28
2022-11-23T04:05:05.858Z,5.10
2022-11-23T04:08:02.818Z,8.35
2022-11-23T04:11:00.203Z,4.43
2022-11-23T04:13:57.086Z,6.60
2022-11-23T04:16:54.031Z,4.30
2022-11-23T04:19:50.961Z,9.40
2022-11-23T04:22:47.890Z,5.07
2022-11-23T04:25:46.185Z,7.50
2022-11-23T04:28:43.052Z,6.57
2022-11-23T04:31:39.998Z,5.32
2022-11-23T04:34:37.188Z,8.02
2022-11-23T04:37:34.090Z,9.25
2022-11-23T04:40:31.788Z,6.68
2022-11-23T04:43:28.680Z,5.63
2022-11-23T04:46:25.984Z,5.15
2022-11-23T04:49:22.821Z,5.55
2022-11-23T04:52:19.693Z,6.13
2022-11-23T04:55:16.669Z,5.68
2022-11-23T04:58:13.621Z,4.80
2022-11-23T05:01:10.633Z,6.20
2022-11-23T05:04:07.801Z,6.72
2022-11-23T05:07:04.803Z,3.83
2022-11-23T05:10:02.028Z,6.72
2022-11-23T05:12:58.994Z,5.63
2022-11-23T05:15:55.829Z,4.95
2022-11-23T05:18:52.660Z,7.85
2022-11-23T05:21:49.517Z,6.03
2022-11-23T05:24:46.368Z,5.82
2022-11-23T05:27:43.251Z,5.00
2022-11-23T05:30:40.093Z,4.45
2022-11-23T05:33:37.170Z,10.13
2022-11-23T05:36:35.153Z,5.85
2022-11-23T05:39:34.723Z,11.60
2022-11-23T05:42:32.761Z,6.75
2022-11-23T05:45:29.663Z,6.82
2022-11-23T05:48:27.053Z,7.75
2022-11-23T05:51:23.959Z,9.15
2022-11-23T05:54:20.996Z,9.98
2022-11-23T05:57:18.064Z,5.97
2022-11-23T06:00:15.717Z,5.30
2022-11-23T06:03:12.669Z,5.78
2022-11-23T06:06:09.661Z,8.65
2022-11-23T06:09:06.510Z,9.60
2022-11-23T06:12:03.932Z,7.95
2022-11-23T06:15:00.816Z,6.65
2022-11-23T06:18:02.218Z,6.18
2022-11-23T06:21:02.145Z,9.82
2022-11-23T06:23:59.000Z,22.03
2022-11-23T06:26:55.842Z,17.92
2022-11-23T06:29:52.702Z,40.65
2022-11-23T06:32:49.816Z,21.40
2022-11-23T06:35:54.834Z,23.75
2022-11-23T06:38:51.677Z,7.85
2022-11-23T06:41:48.637Z,10.98
2022-11-23T06:44:45.470Z,7.88
2022-11-23T06:47:42.358Z,5.88
2022-11-23T06:50:39.232Z,7.72
2022-11-23T06:53:36.576Z,13.38
2022-11-23T06:56:33.430Z,12.98
2022-11-23T06:59:30.484Z,22.88
2022-11-23T07:02:27.657Z,13.55
2022-11-23T07:05:24.972Z,9.93
2022-11-23T07:08:22.302Z,8.00
2022-11-23T07:11:19.162Z,7.53
2022-11-23T07:14:16.198Z,8.25
2022-11-23T07:17:17.320Z,3.92
2022-11-23T07:20:15.056Z,5.45
2022-11-23T07:23:12.668Z,6.78
2022-11-23T07:26:09.803Z,10.60
2022-11-23T07:29:06.763Z,47.83
2022-11-23T07:32:03.796Z,12.70
2022-11-23T07:35:01.140Z,18.40
2022-11-23T07:37:58.112Z,8.63
2022-11-23T07:40:55.071Z,12.35
2022-11-23T07:43:52.104Z,7.05
2022-11-23T07:46:49.012Z,7.03
2022-11-23T07:49:45.863Z,5.03
2022-11-23T07:52:42.756Z,13.23
2022-11-23T07:55:39.608Z,15.25
2022-11-23T07:58:36.507Z,12.52
2022-11-23T08:01:33.483Z,6.80
2022-11-23T08:04:30.812Z,9.27
2022-11-23T08:07:27.893Z,7.97
2022-11-23T08:10:25.187Z,20.75
2022-11-23T08:13:22.849Z,10.85
2022-11-23T08:16:20.068Z,8.40
2022-11-23T08:19:17.488Z,7.60
2022-11-23T08:22:15.849Z,9.13
2022-11-23T08:25:13.451Z,5.55
2022-11-23T08:28:10.985Z,5.88
2022-11-23T08:31:11.352Z,5.80
2022-11-23T08:34:08.236Z,6.13
2022-11-23T08:37:05.100Z,6.43
2022-11-23T08:40:02.146Z,7.65
2022-11-23T08:42:59.195Z,7.47
2022-11-23T08:46:04.704Z,5.60
2022-11-23T08:49:04.948Z,5.60
2022-11-23T08:52:01.920Z,7.55
2022-11-23T08:54:58.778Z,11.30
2022-11-23T08:57:57.706Z,10.40
2022-11-23T09:00:54.616Z,8.15
2022-11-23T09:03:51.565Z,3.72
2022-11-23T09:06:48.399Z,3.95
2022-11-23T09:09:45.314Z,5.55
2022-11-23T09:12:42.326Z,6.75
2022-11-23T09:15:39.640Z,4.32
2022-11-23T09:18:36.785Z,6.95
2022-11-23T09:21:35.753Z,7.30
2022-11-23T09:24:32.889Z,5.80
2022-11-23T09:27:30.077Z,7.70
2022-11-23T09:30:28.026Z,7.05
2022-11-23T09:33:25.785Z,6.47
2022-11-23T09:36:26.161Z,5.55
2022-11-23T09:39:23.027Z,8.30
2022-11-23T09:42:40.309Z,7.00
2022-11-23T09:45:55.019Z,4.47
2022-11-23T09:49:11.917Z,5.75
2022-11-23T09:52:19.419Z,28.10
2022-11-23T09:55:22.835Z,10.52
2022-11-23T09:58:22.736Z,9.85
2022-11-23T10:01:20.244Z,5.00
2022-11-23T10:04:20.234Z,7.30
2022-11-23T10:07:28.987Z,5.77
2022-11-23T10:10:53.912Z,6.63
2022-11-23T10:14:13.985Z,6.93
2022-11-23T10:17:35.709Z,5.83
2022-11-23T10:21:02.366Z,5.63
2022-11-23T10:24:08.483Z,22.60
2022-11-23T10:27:16.291Z,5.90
2022-11-23T10:30:15.844Z,8.85
2022-11-23T10:33:45.068Z,7.75
2022-11-23T10:36:42.978Z,5.68
2022-11-23T10:39:40.494Z,4.18
2022-11-23T10:42:47.831Z,6.15
2022-11-23T10:45:44.664Z,6.32
2022-11-23T10:48:44.569Z,5.05
2022-11-23T10:51:53.221Z,4.50
2022-11-23T10:54:55.433Z,8.80
2022-11-23T10:57:52.617Z,7.70
2022-11-23T11:01:00.841Z,9.93
2022-11-23T11:04:04.686Z,6.38
2022-11-23T11:07:23.973Z,10.38
2022-11-23T11:11:02.863Z,14.50
2022-11-23T11:14:19.959Z,9.32
2022-11-23T11:17:28.405Z,18.20
2022-11-23T11:20:34.897Z,16.92
2022-11-23T11:23:33.557Z,25.23
2022-11-23T11:26:33.999Z,10.85
2022-11-23T11:29:39.977Z,9.68
2022-11-23T11:32:56.261Z,11.57
2022-11-23T11:35:55.860Z,4.43
2022-11-23T11:39:17.277Z,3.13
2022-11-23T11:42:27.142Z,7.60
2022-11-23T11:45:36.646Z,5.38
2022-11-23T11:48:45.629Z,8.27
2022-11-23T11:51:48.776Z,10.95
2022-11-23T11:55:19.700Z,11.63
2022-11-23T12:01:35.641Z,5.65
2022-11-23T12:04:56.327Z,13.57
2022-11-23T12:08:06.648Z,5.65
2022-11-23T12:11:05.741Z,10.13
2022-11-23T12:14:05.727Z,4.82
2022-11-23T12:17:32.300Z,9.07
2022-11-23T12:20:33.052Z,8.45
2022-11-23T12:24:28.922Z,10.45
2022-11-23T12:27:39.274Z,5.82
2022-11-23T12:31:08.758Z,6.63
2022-11-23T12:34:11.356Z,5.78
2022-11-23T12:37:44.330Z,7.35
2022-11-23T12:41:07.931Z,10.95
2022-11-23T12:44:44.912Z,8.50
2022-11-23T12:48:09.036Z,14.45
2022-11-23T12:51:35.243Z,9.93
2022-11-23T12:55:19.571Z,26.08
2022-11-23T12:58:32.773Z,24.25
2022-11-23T13:01:39.786Z,29.50
2022-11-23T13:05:03.115Z,20.95
2022-11-23T13:08:32.514Z,17.63
2022-11-23T13:11:58.034Z,12.43
2022-11-23T13:15:47.450Z,35.92
2022-11-23T13:19:22.726Z,34.63
2022-11-23T13:22:22.504Z,28.42
2022-11-23T13:25:29.765Z,22.13
2022-11-23T13:28:31.389Z,7.97
2022-11-23T13:31:32.165Z,6.95
2022-11-23T13:34:46.824Z,9.00
2022-11-23T13:38:23.715Z,8.60
2022-11-23T13:41:35.361Z,7.03
2022-11-23T13:44:33.477Z,7.28
2022-11-23T13:47:30.761Z,6.20
2022-11-23T13:50:27.665Z,5.63
2022-11-23T13:53:33.265Z,7.82
2022-11-23T13:56:41.064Z,9.70
2022-11-23T13:59:37.968Z,7.88
2022-11-23T14:02:34.883Z,5.75
2022-11-23T14:05:59.402Z,9.05
2022-11-23T14:09:33.157Z,5.18
2022-11-23T14:13:15.926Z,7.60
2022-11-23T14:16:18.454Z,2.83
2022-11-23T14:20:02.143Z,6.25
2022-11-23T14:23:56.716Z,4.18
2022-11-23T14:27:54.260Z,4.20
2022-11-23T14:31:17.833Z,4.65
2022-11-23T14:34:29.294Z,9.02
2022-11-23T14:38:12.831Z,5.30
2022-11-23T14:41:31.050Z,3.10
2022-11-23T14:44:34.271Z,3.13
2022-11-23T14:47:34.265Z,2.90
2022-11-23T14:50:31.512Z,5.22
2022-11-23T14:53:54.155Z,5.03
2022-11-23T14:57:05.329Z,5.50
2022-11-23T15:00:07.083Z,6.85
2022-11-23T15:06:46.155Z,29.45
2022-11-23T15:10:05.444Z,10.02
2022-11-23T15:13:02.368Z,7.68
2022-11-23T15:16:03.593Z,11.18
2022-11-23T15:19:00.456Z,13.73
2022-11-23T15:21:58.290Z,23.60
2022-11-23T15:25:06.301Z,27.55
2022-11-23T15:28:03.178Z,51.00
2022-11-23T15:31:00.197Z,30.25
2022-11-23T15:34:03.510Z,50.80
2022-11-23T15:37:02.374Z,28.45
2022-11-23T15:40:00.114Z,37.05
2022-11-23T15:42:57.384Z,23.15
2022-11-23T15:45:54.423Z,25.02
2022-11-23T15:48:56.985Z,25.67
2022-11-23T15:52:00.958Z,130.52
2022-11-23T15:55:10.205Z,57.13
2022-11-23T15:58:09.437Z,232.43
2022-11-23T16:01:13.325Z,358.67
2022-11-23T16:04:40.148Z,84.72
2022-11-23T16:07:57.559Z,39.72
2022-11-23T16:10:55.791Z,55.97
2022-11-23T16:13:52.750Z,45.50
2022-11-23T16:17:14.615Z,60.83
2022-11-23T16:20:16.553Z,47.55
2022-11-23T16:23:21.593Z,17.15
2022-11-23T16:26:18.833Z,23.20
2022-11-23T16:29:26.888Z,201.18
2022-11-23T16:32:31.072Z,216.88
2022-11-23T16:35:27.980Z,36.17
2022-11-23T16:38:25.411Z,84.38
2022-11-23T16:41:22.242Z,197.55
2022-11-23T16:44:19.780Z,183.85
2022-11-23T16:47:19.043Z,118.13
2022-11-23T16:50:16.017Z,131.18
2022-11-23T16:53:17.947Z,62.10
2022-11-23T16:56:26.809Z,43.10
2022-11-23T16:59:23.831Z,49.28
2022-11-23T17:02:20.958Z,87.95
2022-11-23T17:05:20.828Z,35.67
2022-11-23T17:08:23.309Z,59.00
2022-11-23T17:11:24.934Z,50.72
2022-11-23T17:14:28.062Z,57.38
2022-11-23T17:17:26.790Z,41.08
2022-11-23T17:20:24.662Z,36.97
2022-11-23T17:23:22.295Z,19.80
2022-11-23T17:26:37.028Z,20.90
2022-11-23T17:29:37.769Z,24.00
2022-11-23T17:32:37.328Z,26.75
2022-11-23T17:35:38.145Z,29.77
2022-11-23T17:38:36.624Z,13.15
2022-11-23T17:41:33.519Z,16.75
2022-11-23T17:44:30.420Z,20.58
2022-11-23T17:47:29.988Z,39.53
2022-11-23T17:50:28.680Z,114.68
2022-11-23T17:53:25.765Z,22.23
2022-11-23T17:56:25.665Z,17.73
2022-11-23T17:59:22.551Z,20.20
2022-11-23T18:02:20.019Z,15.00
2022-11-23T18:05:21.501Z,31.67
2022-11-23T18:08:18.829Z,31.75
2022-11-23T18:11:15.857Z,19.30
2022-11-23T18:14:12.721Z,21.23
2022-11-23T18:17:09.661Z,14.68
2022-11-23T18:20:08.316Z,16.10
2022-11-23T18:23:05.462Z,19.33
2022-11-23T18:26:21.710Z,18.83
2022-11-23T18:29:18.594Z,9.77
2022-11-23T18:32:15.838Z,10.68
2022-11-23T18:35:12.746Z,11.95
2022-11-23T18:38:09.647Z,19.60
2022-11-23T18:41:07.150Z,51.90
2022-11-23T18:44:04.220Z,141.15
2022-11-23T18:47:01.302Z,68.00
2022-11-23T18:50:02.052Z,98.60
2022-11-23T18:53:03.725Z,19.40
2022-11-23T18:56:05.014Z,18.33
2022-11-23T18:59:02.828Z,17.63
2022-11-23T19:01:59.762Z,14.05
2022-11-23T19:04:56.722Z,16.15
2022-11-23T19:07:54.624Z,23.98
2022-11-23T19:10:51.656Z,26.13
2022-11-23T19:13:52.512Z,16.95
2022-11-23T19:16:49.402Z,16.52
2022-11-23T19:19:46.440Z,24.27
2022-11-23T19:22:43.469Z,23.10
2022-11-23T19:25:41.358Z,23.13
2022-11-23T19:28:38.740Z,15.40
2022-11-23T19:31:35.825Z,12.02
2022-11-23T19:34:32.916Z,15.70
2022-11-23T19:37:29.947Z,16.70
2022-11-23T19:40:26.948Z,16.23
2022-11-23T19:43:23.892Z,19.42
2022-11-23T19:46:21.298Z,13.20
2022-11-23T19:49:18.582Z,12.75
2022-11-23T19:52:15.521Z,19.50
2022-11-23T19:55:12.392Z,15.63
2022-11-23T19:58:09.271Z,14.15
2022-11-23T20:01:10.775Z,17.52
2022-11-23T20:04:10.257Z,14.57
2022-11-23T20:07:07.455Z,15.52
2022-11-23T20:10:04.928Z,13.88
2022-11-23T20:13:01.856Z,13.23
2022-11-23T20:16:04.063Z,14.98
2022-11-23T20:19:07.285Z,21.58
2022-11-23T20:22:04.234Z,11.23
2022-11-23T20:25:01.114Z,10.70
2022-11-23T20:27:58.053Z,13.95
2022-11-23T20:30:54.981Z,10.02
2022-11-23T20:33:54.004Z,9.27
2022-11-23T20:36:50.956Z,14.40
2022-11-23T20:39:47.797Z,11.48
2022-11-23T20:42:44.659Z,11.70
2022-11-23T20:45:41.539Z,13.35
2022-11-23T20:48:40.484Z,13.27
2022-11-23T20:51:37.345Z,15.52
2022-11-23T20:54:34.449Z,11.27
2022-11-23T20:57:31.452Z,11.90
2022-11-23T21:00:28.278Z,11.75
2022-11-23T21:03:25.260Z,15.45
2022-11-23T21:06:23.223Z,19.42
2022-11-23T21:09:20.159Z,11.82
2022-11-23T21:12:47.599Z,14.30
2022-11-23T21:15:47.295Z,14.75
2022-11-23T21:18:44.214Z,15.15
2022-11-23T21:21:41.298Z,13.80
2022-11-23T21:24:38.734Z,17.33
2022-11-23T21:27:35.594Z,15.68
2022-11-23T21:30:32.531Z,13.35
2022-11-23T21:33:29.983Z,14.02
2022-11-23T21:36:26.819Z,15.80
2022-11-23T21:39:24.209Z,13.70
2022-11-23T21:42:21.220Z,16.50
2022-11-23T21:45:18.196Z,16.67
2022-11-23T21:48:15.041Z,20.30
2022-11-23T21:51:14.994Z,18.05
2022-11-23T21:54:15.478Z,19.52
2022-11-23T22:00:10.080Z,18.58
2022-11-23T22:03:06.911Z,16.15
2022-11-23T22:06:04.777Z,19.75
2022-11-23T22:09:01.810Z,19.77
2022-11-23T22:11:59.015Z,16.00
2022-11-23T22:14:55.865Z,17.75
2022-11-23T22:17:52.730Z,18.15
2022-11-23T22:20:49.553Z,15.65
2022-11-23T22:23:46.740Z,15.65
2022-11-23T22:26:44.989Z,18.88
2022-11-23T22:29:41.835Z,15.70
2022-11-23T22:32:38.699Z,13.57
2022-11-23T22:35:35.516Z,13.00
2022-11-23T22:38:33.391Z,14.13
2022-11-23T22:41:36.226Z,16.55
2022-11-23T22:44:33.333Z,18.52
2022-11-23T22:47:30.366Z,16.52
2022-11-23T22:50:27.198Z,16.73
2022-11-23T22:53:24.964Z,10.98
2022-11-23T22:56:21.960Z,10.02
2022-11-23T22:59:19.092Z,10.25
2022-11-23T23:02:15.943Z,13.32
2022-11-23T23:05:12.869Z,14.35
2022-11-23T23:08:10.400Z,10.90
2022-11-23T23:11:07.718Z,13.32
2022-11-23T23:14:05.626Z,12.90
2022-11-23T23:17:02.477Z,14.32
2022-11-23T23:19:59.298Z,11.40
2022-11-23T23:22:56.216Z,11.98
2022-11-23T23:25:56.530Z,15.30
2022-11-23T23:28:58.951Z,14.27
2022-11-23T23:31:55.892Z,16.05
2022-11-23T23:34:52.844Z,16.95
2022-11-23T23:37:51.770Z,13.90
2022-11-23T23:40:48.605Z,14.48
2022-11-23T23:43:47.943Z,15.85
2022-11-23T23:46:44.904Z,15.38
2022-11-23T23:49:41.775Z,13.73
2022-11-23T23:52:38.703Z,17.17
2022-11-23T23:55:35.566Z,15.60
2022-11-23T23:58:32.616Z,18.05
